Time;durP1;ratioP1;P1;durP2;ratioP2;P2;SDS_P1;SDS_P2;PMS_P1;PMS_P2;Temp;Humidity;BMP_temperature;BMP_pressure;BME280_temperature;BME280_humidity;BME280_pressure;Samples;Min_cycle;Max_cycle;Signal;HPM_P1;HPM_P2
2022/05/24 00:02:01;;;;;;;64.55;45.20;;;;;;;13.30;95.86;100076.06;5047921;28;20472;-54
2022/05/24 00:04:26;;;;;;;64.03;45.65;;;;;;;13.29;95.73;100061.06;5049188;28;20112;-54
2022/05/24 00:06:51;;;;;;;64.65;45.67;;;;;;;13.28;95.50;100067.41;5043831;28;20090;-55
2022/05/24 00:09:16;;;;;;;64.07;44.40;;;;;;;13.26;95.51;100059.63;5046508;28;20040;-53
2022/05/24 00:11:42;;;;;;;58.05;41.38;;;;;;;13.24;95.36;100059.00;5049592;28;20488;-53
2022/05/24 00:14:07;;;;;;;59.72;42.53;;;;;;;13.21;95.14;100064.75;5049452;28;20036;-56
2022/05/24 00:16:32;;;;;;;54.78;39.25;;;;;;;13.19;94.65;100050.81;5047097;28;20479;-54
2022/05/24 00:18:58;;;;;;;55.35;40.10;;;;;;;13.16;94.64;100051.19;5026309;28;20029;-52
2022/05/24 00:21:23;;;;;;;48.90;36.05;;;;;;;13.13;94.58;100053.47;5048248;28;20039;-53
2022/05/24 00:23:49;;;;;;;47.05;34.55;;;;;;;13.08;94.77;100050.59;5048050;28;20029;-52
2022/05/24 00:26:28;;;;;;;48.72;33.35;;;;;;;13.06;94.30;100055.31;5052043;28;20021;-53
2022/05/24 00:28:53;;;;;;;46.92;32.67;;;;;;;13.02;93.93;100044.25;5048522;28;20033;-52
2022/05/24 00:31:18;;;;;;;42.05;31.17;;;;;;;12.96;93.99;100055.72;5045380;28;20074;-56
2022/05/24 00:33:43;;;;;;;42.80;30.02;;;;;;;12.95;94.10;100056.75;5051328;28;20399;-55
2022/05/24 00:36:09;;;;;;;41.58;29.40;;;;;;;12.92;93.85;100059.81;5049089;28;20037;-55
2022/05/24 00:38:39;;;;;;;38.10;28.35;;;;;;;12.88;93.67;100048.75;5047790;28;20039;-54
2022/05/24 00:41:27;;;;;;;40.92;28.70;;;;;;;12.85;93.82;100054.50;5041027;28;20020;-55
2022/05/24 00:44:04;;;;;;;40.38;28.15;;;;;;;12.84;93.73;100057.38;5041694;28;20480;-54
2022/05/24 00:46:56;;;;;;;34.47;26.00;;;;;;;12.79;93.80;100047.31;5048973;28;20025;-54
2022/05/24 00:49:37;;;;;;;37.45;26.25;;;;;;;12.75;93.77;100046.09;5045279;28;20040;-53
2022/05/24 00:52:08;;;;;;;37.47;25.83;;;;;;;12.72;93.66;100054.47;5046797;28;20025;-54
2022/05/24 00:54:33;;;;;;;33.42;24.70;;;;;;;12.68;93.55;100061.22;5044913;28;20017;-55
2022/05/24 00:57:09;;;;;;;31.13;23.95;;;;;;;12.66;93.53;100057.94;5041351;28;20043;-53
2022/05/24 00:59:48;;;;;;;31.42;23.60;;;;;;;12.63;93.56;100058.34;5057454;28;20037;-54
2022/05/24 01:02:13;;;;;;;32.83;23.38;;;;;;;12.59;93.18;100060.63;5048542;28;20104;-54
2022/05/24 01:04:38;;;;;;;35.10;22.48;;;;;;;12.57;93.44;100054.66;5046640;28;20104;-52
2022/05/24 01:07:04;;;;;;;30.35;21.88;;;;;;;12.53;93.13;100050.78;5043489;28;20037;-55
2022/05/24 01:09:54;;;;;;;27.42;19.45;;;;;;;12.51;93.21;100047.50;5059097;28;20638;-54
2022/05/24 01:12:29;;;;;;;28.40;19.75;;;;;;;12.46;92.77;100039.31;5044238;28;20112;-53
2022/05/24 01:14:58;;;;;;;27.13;19.15;;;;;;;12.43;92.91;100050.31;5047362;28;20020;-55
2022/05/24 01:17:23;;;;;;;31.00;18.95;;;;;;;12.40;92.61;100040.91;5046855;28;20085;-53
2022/05/24 01:19:49;;;;;;;29.88;19.13;;;;;;;12.37;92.63;100040.50;5051016;28;20032;-52
2022/05/24 01:22:59;;;;;;;29.58;17.52;;;;;;;12.35;92.81;100048.69;5048624;28;20028;-54
2022/05/24 01:25:27;;;;;;;24.52;17.23;;;;;;;12.29;92.59;100051.34;5024209;28;20124;-54
2022/05/24 01:27:52;;;;;;;28.27;16.27;;;;;;;12.25;92.50;100045.59;5049416;28;20021;-54
2022/05/24 01:30:17;;;;;;;22.20;14.77;;;;;;;12.22;92.20;100032.69;5049210;28;20446;-54
2022/05/24 01:38:15;;;;;;;24.52;13.60;;;;;;;12.15;91.94;100073.63;5043465;28;20420;-53
2022/05/24 01:40:41;;;;;;;18.48;12.30;;;;;;;12.12;91.58;100066.00;5042923;28;20755;-53
2022/05/24 01:43:07;;;;;;;25.45;13.00;;;;;;;12.09;91.51;100073.38;5045205;28;20033;-54
2022/05/24 01:45:45;;;;;;;26.50;12.80;;;;;;;12.05;91.14;100076.63;5047005;28;20025;-53
2022/05/24 01:48:16;;;;;;;24.30;11.77;;;;;;;12.02;91.57;100075.19;5046999;28;20032;-55
2022/05/24 01:50:44;;;;;;;17.40;11.20;;;;;;;11.99;91.39;100072.94;5045603;28;20075;-52
2022/05/24 01:53:20;;;;;;;17.05;9.85;;;;;;;11.97;91.37;100071.50;5045752;28;20089;-55
2022/05/24 01:55:51;;;;;;;18.17;10.30;;;;;;;11.95;90.79;100074.34;5042651;28;20021;-53
2022/05/24 01:58:18;;;;;;;17.88;10.18;;;;;;;11.92;90.97;100069.44;5045530;28;20025;-55
2022/05/24 02:01:03;;;;;;;18.00;10.07;;;;;;;11.91;90.75;100069.63;5048230;28;20032;-54
2022/05/24 02:03:28;;;;;;;20.17;9.95;;;;;;;11.89;90.76;100067.16;5045026;28;20036;-55
2022/05/24 02:05:53;;;;;;;22.38;9.65;;;;;;;11.86;90.65;100059.59;5045948;28;20029;-53
2022/05/24 02:08:19;;;;;;;17.20;10.18;;;;;;;11.83;90.47;100061.78;5053408;28;20087;-55
2022/05/24 02:10:55;;;;;;;20.52;9.68;;;;;;;11.82;90.46;100053.00;5051596;28;20025;-54
2022/05/24 02:13:43;;;;;;;20.45;8.95;;;;;;;11.80;90.56;100057.69;5047031;28;20071;-55
2022/05/24 02:16:13;;;;;;;18.83;8.98;;;;;;;11.76;90.31;100053.75;5046332;28;20081;-54
2022/05/24 02:18:40;;;;;;;16.77;8.90;;;;;;;11.74;90.57;100063.78;5046079;28;20078;-53
2022/05/24 02:21:06;;;;;;;14.13;8.15;;;;;;;11.73;90.27;100067.47;5044165;28;20043;-52
2022/05/24 02:23:40;;;;;;;16.55;8.77;;;;;;;11.72;90.45;100071.13;5040887;28;20033;-55
2022/05/24 02:26:09;;;;;;;15.95;8.25;;;;;;;11.70;90.11;100076.66;5047714;28;20027;-55
2022/05/24 02:28:35;;;;;;;13.18;7.15;;;;;;;11.69;90.04;100074.19;5050855;28;20116;-53
2022/05/24 02:31:05;;;;;;;13.00;7.45;;;;;;;11.71;90.16;100077.47;5050070;28;20068;-54
2022/05/24 02:33:32;;;;;;;15.20;7.07;;;;;;;11.70;90.27;100067.84;5051022;28;20044;-52
2022/05/24 02:35:58;;;;;;;12.02;6.78;;;;;;;11.69;89.76;100063.56;5049224;28;20041;-55
2022/05/24 02:38:23;;;;;;;13.35;6.93;;;;;;;11.67;89.42;100055.78;5050553;28;20037;-54
2022/05/24 02:43:33;;;;;;;18.88;6.22;;;;;;;11.64;89.63;100074.78;5049242;28;20048;-54
2022/05/24 02:45:58;;;;;;;16.63;5.90;;;;;;;11.63;89.08;100074.97;5055984;28;20020;-56
2022/05/24 02:48:24;;;;;;;13.52;6.07;;;;;;;11.62;88.96;100079.47;5047842;28;20400;-55
2022/05/24 02:50:49;;;;;;;13.73;5.78;;;;;;;11.62;89.00;100076.00;5048863;28;20104;-52
2022/05/24 02:53:14;;;;;;;16.77;5.80;;;;;;;11.61;89.35;100067.19;5050458;28;20763;-55
2022/05/24 02:55:40;;;;;;;17.80;6.75;;;;;;;11.58;89.67;100061.47;5051181;28;20025;-54
2022/05/24 02:58:05;;;;;;;12.30;5.75;;;;;;;11.58;89.55;100064.13;5049251;28;20353;-54
2022/05/24 03:00:31;;;;;;;11.02;5.55;;;;;;;11.58;89.30;100074.75;5052242;28;20383;-55
2022/05/24 03:02:56;;;;;;;12.20;5.50;;;;;;;11.59;89.32;100073.75;5046033;28;20484;-55
2022/05/24 03:05:23;;;;;;;12.93;5.10;;;;;;;11.59;89.34;100073.75;5050246;28;20036;-52
2022/05/24 03:10:33;;;;;;;10.82;4.70;;;;;;;11.59;89.28;100069.25;5047146;28;20068;-53
2022/05/24 03:15:44;;;;;;;22.92;5.22;;;;;;;11.57;88.89;100073.94;5050301;28;20466;-52
2022/05/24 03:18:11;;;;;;;15.15;4.57;;;;;;;11.58;88.85;100082.72;5049970;28;20029;-52
2022/05/24 03:20:37;;;;;;;13.82;4.70;;;;;;;11.57;89.12;100079.25;5048375;28;20099;-52
2022/05/24 03:23:03;;;;;;;16.73;4.88;;;;;;;11.57;88.86;100073.13;5044398;28;20025;-54
2022/05/24 03:25:31;;;;;;;10.63;4.43;;;;;;;11.56;88.72;100080.25;5050426;28;20568;-54
2022/05/24 03:27:56;;;;;;;12.25;4.68;;;;;;;11.55;88.71;100078.59;5060742;28;20020;-52
2022/05/24 03:30:21;;;;;;;9.93;5.00;;;;;;;11.54;88.75;100078.78;5048659;28;20401;-52
2022/05/24 03:32:49;;;;;;;16.80;5.18;;;;;;;11.54;89.01;100089.44;5045887;28;20473;-53
2022/05/24 03:35:14;;;;;;;12.93;5.57;;;;;;;11.45;88.57;100078.97;5049285;28;20067;-53
2022/05/24 03:37:41;;;;;;;13.02;5.43;;;;;;;11.52;89.12;100091.47;5044597;28;20500;-55
2022/05/24 03:40:08;;;;;;;13.45;5.80;;;;;;;11.48;88.72;100086.53;5046102;28;20029;-53
2022/05/24 03:42:34;;;;;;;12.48;5.97;;;;;;;11.49;88.88;100088.19;5047068;28;20035;-54
2022/05/24 03:44:59;;;;;;;16.77;6.22;;;;;;;11.48;88.69;100078.56;5047028;28;20033;-53
2022/05/24 03:47:24;;;;;;;13.30;5.97;;;;;;;11.49;89.36;100084.69;5048313;28;20102;-54
2022/05/24 03:49:49;;;;;;;11.00;5.70;;;;;;;11.49;88.99;100087.34;5047951;28;20029;-51
2022/05/24 03:52:15;;;;;;;14.98;5.93;;;;;;;11.50;89.30;100081.03;5049888;28;20107;-52
2022/05/24 03:54:40;;;;;;;14.98;6.20;;;;;;;11.50;89.31;100089.00;5048852;28;20040;-53
2022/05/24 03:59:50;;;;;;;19.60;6.53;;;;;;;11.49;89.49;100093.50;5048563;28;20043;-53
2022/05/24 04:02:16;;;;;;;14.85;7.10;;;;;;;11.48;89.52;100112.31;5048810;28;20037;-54
2022/05/24 04:04:41;;;;;;;20.95;7.57;;;;;;;11.48;89.57;100117.63;5051775;28;20485;-53
2022/05/24 04:07:06;;;;;;;17.20;7.47;;;;;;;11.52;89.07;100121.53;5046277;28;20029;-51
2022/05/24 04:09:33;;;;;;;14.65;7.05;;;;;;;11.52;89.23;100110.91;5048469;28;20506;-52
2022/05/24 04:11:58;;;;;;;16.00;7.72;;;;;;;11.54;89.27;100124.00;5049460;28;20028;-52
2022/05/24 04:14:23;;;;;;;19.92;7.50;;;;;;;11.55;89.33;100138.94;5041604;28;20078;-53
2022/05/24 04:16:49;;;;;;;20.90;7.45;;;;;;;11.55;89.00;100131.78;5039532;28;20116;-54
2022/05/24 04:19:14;;;;;;;16.67;7.60;;;;;;;11.55;89.26;100131.78;5046146;28;20075;-53
2022/05/24 04:21:39;;;;;;;17.17;7.30;;;;;;;11.56;89.13;100144.06;5049524;28;20481;-51
2022/05/24 04:24:05;;;;;;;17.45;7.78;;;;;;;11.55;89.12;100141.59;5048997;28;20039;-54
2022/05/24 04:26:31;;;;;;;14.20;7.72;;;;;;;11.54;89.20;100129.31;5045539;28;20087;-53
2022/05/24 04:28:57;;;;;;;17.45;8.57;;;;;;;11.52;89.11;100112.75;5038232;28;20492;-51
2022/05/24 04:31:23;;;;;;;14.82;7.97;;;;;;;11.52;89.16;100100.25;5039595;28;20135;-53
2022/05/24 04:33:48;;;;;;;16.58;8.05;;;;;;;11.49;88.74;100098.81;5044218;28;20111;-54
2022/05/24 04:36:13;;;;;;;19.35;8.43;;;;;;;11.48;89.03;100101.66;5040477;28;20164;-54
2022/05/24 04:38:38;;;;;;;15.48;8.30;;;;;;;11.47;89.16;100108.00;5042707;28;20044;-53
2022/05/24 04:43:47;;;;;;;16.33;9.50;;;;;;;11.44;89.08;100134.97;5041251;28;20047;-51
2022/05/24 04:46:13;;;;;;;17.70;9.50;;;;;;;11.44;89.42;100166.88;5042210;28;20036;-54
2022/05/24 04:48:38;;;;;;;21.05;9.27;;;;;;;11.44;89.04;100158.91;5036768;28;20465;-52
2022/05/24 04:51:03;;;;;;;18.25;9.13;;;;;;;11.44;89.23;100157.06;5042759;28;20021;-53
2022/05/24 04:53:28;;;;;;;19.20;9.13;;;;;;;11.41;89.14;100130.06;5037850;28;20029;-54
2022/05/24 04:55:54;;;;;;;18.65;9.98;;;;;;;11.42;89.27;100142.34;5039303;28;20451;-54
2022/05/24 04:58:21;;;;;;;15.73;8.93;;;;;;;11.40;89.30;100147.84;5038027;28;20041;-54
2022/05/24 05:00:48;;;;;;;16.65;8.65;;;;;;;11.39;89.37;100159.50;5044056;28;20031;-53
2022/05/24 05:03:17;;;;;;;16.88;8.10;;;;;;;11.40;88.97;100165.63;5038553;28;20024;-55
2022/05/24 05:05:43;;;;;;;16.13;8.43;;;;;;;11.40;88.73;100173.59;5041010;28;20048;-54
2022/05/24 05:08:08;;;;;;;16.33;7.88;;;;;;;11.39;89.07;100186.06;5040945;28;20369;-53
2022/05/24 05:10:34;;;;;;;17.05;7.50;;;;;;;11.39;88.71;100188.75;5041081;28;20712;-53
2022/05/24 05:13:01;;;;;;;14.18;7.40;;;;;;;11.39;88.84;100190.56;5041931;28;20024;-55
2022/05/24 05:15:26;;;;;;;14.57;7.28;;;;;;;11.39;88.48;100186.06;5043111;28;20028;-53
2022/05/24 05:18:01;;;;;;;15.13;6.65;;;;;;;11.38;88.58;100200.38;5039416;28;20094;-55
2022/05/24 05:20:26;;;;;;;14.23;7.00;;;;;;;11.40;88.41;100194.88;5042012;28;20032;-54
2022/05/24 05:22:51;;;;;;;17.55;6.82;;;;;;;11.41;88.32;100207.16;5042511;28;20144;-54
2022/05/24 05:25:17;;;;;;;12.43;6.30;;;;;;;11.40;88.63;100202.84;5042004;28;20403;-52
2022/05/24 05:27:42;;;;;;;14.57;6.90;;;;;;;11.40;88.41;100202.84;5043274;28;20052;-52
2022/05/24 05:32:52;;;;;;;15.13;6.68;;;;;;;11.42;88.10;100184.88;5045289;28;20040;-55
2022/05/24 05:35:18;;;;;;;13.15;6.63;;;;;;;11.43;88.62;100192.66;5039751;28;20256;-53
2022/05/24 05:37:43;;;;;;;14.60;6.50;;;;;;;11.44;88.23;100201.44;5042993;28;20021;-54
2022/05/24 05:40:09;;;;;;;13.85;6.68;;;;;;;11.43;88.39;100199.81;5040509;28;20079;-53
2022/05/24 05:42:35;;;;;;;13.25;6.60;;;;;;;11.42;88.12;100188.34;5039930;28;20405;-54
2022/05/24 05:45:01;;;;;;;12.52;6.57;;;;;;;11.42;87.96;100188.34;5039530;28;20037;-53
2022/05/24 05:47:26;;;;;;;15.07;6.38;;;;;;;11.42;87.69;100183.03;5040582;28;20032;-55
2022/05/24 05:49:51;;;;;;;14.77;5.57;;;;;;;11.43;87.63;100191.84;5043719;28;20024;-54
2022/05/24 05:52:17;;;;;;;14.73;6.00;;;;;;;11.42;87.92;100188.34;5043128;28;20037;-51
2022/05/24 05:54:42;;;;;;;17.88;6.13;;;;;;;11.42;87.82;100196.31;5043145;28;20461;-54
2022/05/24 05:57:08;;;;;;;12.05;5.35;;;;;;;11.42;87.91;100206.97;5041459;28;20025;-51
2022/05/24 05:59:34;;;;;;;13.10;5.50;;;;;;;11.39;87.93;100206.53;5045138;28;20032;-53
2022/05/24 06:02:00;;;;;;;13.95;5.22;;;;;;;11.37;87.70;100217.34;5045702;28;20392;-52
2022/05/24 06:04:26;;;;;;;15.27;5.32;;;;;;;11.36;87.89;100222.88;5045028;28;20517;-55
2022/05/24 06:06:53;;;;;;;14.10;4.97;;;;;;;11.37;87.54;100227.16;5050977;28;20033;-53
2022/05/24 06:09:18;;;;;;;12.02;5.60;;;;;;;11.37;87.43;100233.31;5051981;28;20025;-51
2022/05/24 06:11:44;;;;;;;12.15;4.65;;;;;;;11.36;87.71;100244.94;5049395;28;20087;-54
2022/05/24 06:14:10;;;;;;;11.20;4.47;;;;;;;11.38;87.34;100239.44;5055185;28;20064;-52
2022/05/24 06:16:35;;;;;;;11.55;4.90;;;;;;;11.42;87.49;100230.88;5060529;28;20535;-51
2022/05/24 06:19:01;;;;;;;9.23;5.00;;;;;;;11.45;87.27;100242.97;5051693;28;20052;-54
2022/05/24 06:21:26;;;;;;;11.77;4.90;;;;;;;11.47;87.06;100256.91;5049985;28;20025;-51
2022/05/24 06:23:52;;;;;;;8.90;4.53;;;;;;;11.47;87.17;100240.94;5047969;28;20024;-52
2022/05/24 06:26:20;;;;;;;15.38;6.30;;;;;;;11.45;86.31;100238.47;5059202;28;20097;-55
2022/05/24 06:28:45;;;;;;;11.75;5.95;;;;;;;11.49;86.50;100239.75;5052468;28;20032;-52
2022/05/24 06:37:54;;;;;;;10.40;5.85;;;;;;;11.84;86.18;100255.00;5047916;28;20470;-52
2022/05/24 06:40:20;;;;;;;14.23;7.00;;;;;;;11.92;86.03;100258.34;5054436;28;20032;-51
2022/05/24 06:42:45;;;;;;;11.98;6.40;;;;;;;11.96;85.26;100262.25;5058646;28;20047;-53
2022/05/24 06:45:11;;;;;;;10.50;6.45;;;;;;;12.04;84.96;100291.38;5051022;28;20033;-52
2022/05/24 06:47:37;;;;;;;11.35;5.88;;;;;;;12.06;84.36;100265.41;5048374;28;20067;-51
2022/05/24 06:50:03;;;;;;;10.10;5.90;;;;;;;12.12;84.29;100274.44;5051214;28;20021;-52
2022/05/24 06:52:29;;;;;;;11.77;7.15;;;;;;;12.26;84.94;100268.19;5048295;28;20111;-51
2022/05/24 06:54:54;;;;;;;13.68;6.78;;;;;;;12.33;83.82;100286.88;5056712;28;20028;-53
2022/05/24 06:57:19;;;;;;;13.32;6.22;;;;;;;12.40;82.99;100291.22;5055148;28;20041;-53
2022/05/24 07:02:31;;;;;;;10.57;7.30;;;;;;;12.44;81.78;100323.63;5045804;28;20071;-53
2022/05/24 07:05:00;;;;;;;13.13;8.00;;;;;;;12.44;82.27;100296.16;5055310;28;20036;-53
2022/05/24 07:07:27;;;;;;;9.57;6.38;;;;;;;12.42;81.55;100330.97;5049967;28;20024;-54
2022/05/24 07:09:53;;;;;;;13.45;7.38;;;;;;;12.41;81.56;100313.34;5048480;28;20368;-54
2022/05/24 07:12:22;;;;;;;11.88;7.68;;;;;;;12.42;81.70;100312.31;5054685;28;20527;-53
2022/05/24 07:14:48;;;;;;;11.93;8.00;;;;;;;12.44;81.40;100325.47;5055246;28;20112;-52
2022/05/24 07:17:15;;;;;;;12.88;8.50;;;;;;;12.44;80.66;100320.13;5049517;28;20024;-51
2022/05/24 07:19:41;;;;;;;12.73;9.85;;;;;;;12.43;79.75;100324.63;5052006;28;20025;-54
2022/05/24 07:22:07;;;;;;;12.68;8.05;;;;;;;12.48;79.52;100326.72;5051111;28;20462;-54
2022/05/24 07:24:33;;;;;;;13.30;9.45;;;;;;;12.60;80.53;100328.63;5046918;28;20032;-51
2022/05/24 07:26:58;;;;;;;11.60;8.45;;;;;;;12.68;80.34;100333.78;5055553;28;20373;-53
2022/05/24 07:29:23;;;;;;;14.68;9.23;;;;;;;12.68;79.28;100324.97;5048822;28;20103;-55
2022/05/24 07:31:49;;;;;;;14.93;8.77;;;;;;;12.74;79.36;100326.06;5055615;28;20506;-53
2022/05/24 07:34:15;;;;;;;8.63;7.78;;;;;;;12.81;78.80;100329.56;5046396;28;20081;-52
2022/05/24 07:36:41;;;;;;;12.32;8.40;;;;;;;12.80;77.45;100334.06;5044645;28;20041;-51
2022/05/24 07:39:06;;;;;;;11.88;8.10;;;;;;;12.80;76.79;100343.91;5043444;28;20057;-54
2022/05/24 07:47:00;;;;;;;9.05;7.15;;;;;;;12.97;78.00;100339.88;5039602;28;20105;-52
2022/05/24 07:49:25;;;;;;;9.32;6.93;;;;;;;13.00;76.92;100339.47;5040913;28;20200;-51
2022/05/24 07:51:50;;;;;;;9.98;7.47;;;;;;;13.01;77.34;100344.63;5044641;28;20039;-51
2022/05/24 07:54:16;;;;;;;11.10;6.90;;;;;;;13.00;76.36;100339.47;5047540;28;20121;-54
2022/05/24 07:56:44;;;;;;;11.82;6.47;;;;;;;13.00;76.02;100353.63;5047625;28;20036;-56
2022/05/24 07:59:09;;;;;;;6.82;5.95;;;;;;;12.99;76.05;100346.66;5042236;28;20052;-55
2022/05/24 08:01:36;;;;;;;9.63;6.40;;;;;;;13.06;75.61;100343.22;5030732;28;20484;-55
2022/05/24 08:04:02;;;;;;;7.25;6.50;;;;;;;13.13;75.95;100349.38;5025899;28;20468;-54
2022/05/24 08:06:28;;;;;;;9.00;6.70;;;;;;;13.14;75.68;100356.34;5046449;28;20128;-53
2022/05/24 08:08:53;;;;;;;10.20;7.18;;;;;;;13.18;75.91;100352.31;5045720;28;20539;-52
2022/05/24 08:11:18;;;;;;;8.95;7.10;;;;;;;13.27;75.88;100369.75;5045193;28;20037;-53
2022/05/24 08:13:43;;;;;;;9.02;7.88;;;;;;;13.47;76.28;100353.84;5050317;28;20032;-53
2022/05/24 08:16:09;;;;;;;11.60;6.47;;;;;;;13.55;75.14;100350.97;5042440;28;20031;-53
2022/05/24 08:18:34;;;;;;;7.88;5.68;;;;;;;13.51;74.79;100369.22;5055397;28;20048;-55
2022/05/24 08:21:00;;;;;;;7.40;6.15;;;;;;;13.49;74.32;100357.13;5044192;28;20465;-52
2022/05/24 08:23:27;;;;;;;11.32;6.22;;;;;;;13.53;74.83;100361.03;5045573;28;20108;-55
2022/05/24 08:25:54;;;;;;;6.07;4.45;;;;;;;13.52;73.68;100368.22;5049159;28;20137;-54
2022/05/24 08:28:19;;;;;;;8.43;5.05;;;;;;;13.42;73.47;100361.63;5047494;28;20590;-52
2022/05/24 08:30:45;;;;;;;7.90;4.63;;;;;;;13.41;73.05;100370.66;5047677;28;20104;-52
2022/05/24 08:33:14;;;;;;;6.68;4.50;;;;;;;13.45;73.11;100394.03;5055314;28;20560;-53
2022/05/24 08:35:40;;;;;;;8.55;6.55;;;;;;;13.50;73.24;100396.94;5047729;28;20415;-52
2022/05/24 08:38:07;;;;;;;7.13;5.22;;;;;;;13.50;71.58;100398.78;5047896;28;20056;-53
2022/05/24 08:40:35;;;;;;;6.28;4.78;;;;;;;13.50;71.88;100388.94;5050576;28;20133;-54
2022/05/24 08:43:38;;;;;;;6.40;5.15;;;;;;;13.54;72.10;100395.50;5057090;28;20115;-53
2022/05/24 08:49:07;;;;;;;9.88;8.30;;;;;;;13.32;71.88;100397.50;5048770;28;20558;-51
2022/05/24 08:51:39;;;;;;;8.43;7.10;;;;;;;13.32;72.23;100410.00;5048832;28;20107;-51
2022/05/24 08:54:14;;;;;;;8.32;6.57;;;;;;;13.36;72.94;100413.94;5045584;28;20067;-55
2022/05/24 08:56:50;;;;;;;6.40;5.72;;;;;;;13.40;72.42;100420.50;5041930;28;20106;-53
2022/05/24 08:59:28;;;;;;;10.27;6.25;;;;;;;13.38;72.82;100427.06;5048508;28;20041;-52
2022/05/24 09:01:54;;;;;;;9.00;7.25;;;;;;;13.33;72.35;100430.31;5054262;28;20024;-53
2022/05/24 09:04:19;;;;;;;9.65;7.78;;;;;;;13.37;73.03;100431.56;5053731;28;20029;-53
2022/05/24 09:06:54;;;;;;;9.57;8.55;;;;;;;13.55;73.52;100439.00;5053926;28;20021;-53
2022/05/24 09:09:43;;;;;;;8.55;6.75;;;;;;;13.75;73.60;100450.59;5048450;28;20037;-54
2022/05/24 09:12:30;;;;;;;8.00;5.82;;;;;;;13.82;72.41;100442.59;5048994;28;20172;-54
2022/05/24 09:15:11;;;;;;;11.07;6.65;;;;;;;13.85;72.96;100448.34;5044062;28;20021;-52
2022/05/24 09:17:43;;;;;;;5.63;5.10;;;;;;;13.81;71.37;100452.44;5045239;28;20025;-53
2022/05/24 09:20:34;;;;;;;7.45;4.57;;;;;;;13.84;71.60;100451.22;5048558;28;20541;-51
2022/05/24 09:23:20;;;;;;;9.70;6.05;;;;;;;13.76;70.33;100464.75;5051613;28;20519;-52
2022/05/24 09:25:58;;;;;;;8.52;5.57;;;;;;;13.67;70.37;100458.78;5045187;28;20029;-53
2022/05/24 09:28:47;;;;;;;6.17;5.57;;;;;;;13.57;70.25;100468.97;5047304;28;20603;-54
2022/05/24 09:31:18;;;;;;;9.80;5.40;;;;;;;13.44;70.64;100467.09;5048028;28;20090;-54
2022/05/24 09:33:44;;;;;;;5.72;5.13;;;;;;;13.43;71.27;100478.78;5049342;28;20427;-52
2022/05/24 09:36:23;;;;;;;5.88;4.93;;;;;;;13.37;71.19;100484.91;5051052;28;20033;-53
2022/05/24 09:38:49;;;;;;;6.05;5.22;;;;;;;13.33;71.04;100492.50;5052144;28;20032;-53
2022/05/24 09:41:18;;;;;;;8.02;5.70;;;;;;;13.28;72.06;100488.75;5023437;28;20018;-52
2022/05/24 09:44:00;;;;;;;10.18;6.68;;;;;;;13.09;73.22;100500.09;5052834;28;20121;-54
2022/05/24 09:46:27;;;;;;;7.72;6.95;;;;;;;12.79;75.09;100502.13;5051352;28;20025;-52
2022/05/24 09:48:56;;;;;;;8.00;6.53;;;;;;;12.75;76.70;100500.88;5051361;28;20035;-51
2022/05/24 09:51:30;;;;;;;7.50;4.60;;;;;;;12.83;76.99;100506.88;5052544;28;20033;-53
2022/05/24 09:53:55;;;;;;;6.20;3.60;;;;;;;12.88;76.89;100508.97;5052550;28;20021;-51
2022/05/24 09:56:28;;;;;;;8.43;3.88;;;;;;;12.93;77.74;100506.53;5054493;28;20059;-53
2022/05/24 09:59:18;;;;;;;6.13;3.42;;;;;;;12.95;77.95;100508.00;5054129;28;20400;-52
2022/05/24 10:01:44;;;;;;;6.38;3.28;;;;;;;13.01;77.79;100509.91;5052061;28;20029;-54
2022/05/24 10:04:23;;;;;;;4.85;3.28;;;;;;;13.08;77.62;100517.94;5051930;28;20574;-52
2022/05/24 10:06:56;;;;;;;7.38;3.60;;;;;;;13.16;78.04;100514.28;5051108;28;20056;-53
2022/05/24 10:09:46;;;;;;;5.88;3.40;;;;;;;13.26;77.43;100523.59;5050909;28;20532;-53
2022/05/24 10:12:26;;;;;;;6.90;3.50;;;;;;;13.45;76.59;100518.59;5053720;28;20061;-52
2022/05/24 10:15:04;;;;;;;6.20;3.40;;;;;;;13.61;77.23;100526.28;5046619;28;20123;-52
2022/05/24 10:17:39;;;;;;;5.47;3.38;;;;;;;13.67;75.98;100519.34;5050768;28;20032;-53
2022/05/24 10:20:05;;;;;;;4.88;3.13;;;;;;;13.78;75.74;100535.59;5051901;28;20080;-51
2022/05/24 10:22:46;;;;;;;3.88;2.42;;;;;;;14.07;74.90;100525.63;5045880;28;20060;-51
2022/05/24 10:25:37;;;;;;;3.17;2.28;;;;;;;14.54;75.64;100546.13;5038527;28;20269;-54
2022/05/24 10:28:20;;;;;;;6.18;2.00;;;;;;;14.73;73.04;100547.97;5032945;28;20043;-53
2022/05/24 10:31:03;;;;;;;3.60;2.20;;;;;;;14.59;71.52;100550.84;5040933;28;20016;-53
2022/05/24 10:39:47;;;;;;;1.88;0.90;;;;;;;13.98;67.59;100565.03;5043762;28;20093;-53
2022/05/24 10:42:52;;;;;;;1.75;1.30;;;;;;;13.82;68.17;100568.03;5043158;28;20060;-51
2022/05/24 10:45:22;;;;;;;3.15;1.40;;;;;;;13.79;69.10;100565.78;5041064;28;20107;-53
2022/05/24 10:47:53;;;;;;;5.20;1.73;;;;;;;13.78;69.13;100572.94;5041539;28;20016;-52
2022/05/24 10:50:34;;;;;;;3.55;1.90;;;;;;;13.76;69.61;100564.31;5039625;28;20476;-53
2022/05/24 10:53:09;;;;;;;3.65;2.10;;;;;;;13.77;69.99;100559.81;5041855;28;20025;-52
2022/05/24 10:55:40;;;;;;;1.92;1.73;;;;;;;13.80;69.57;100570.09;5043524;28;20561;-52
2022/05/24 10:58:11;;;;;;;2.50;1.70;;;;;;;13.83;69.18;100562.50;5038784;28;20029;-52
2022/05/24 11:00:40;;;;;;;2.55;1.80;;;;;;;14.10;69.68;100560.75;5041291;28;20024;-54
2022/05/24 11:03:12;;;;;;;3.35;1.70;;;;;;;14.48;69.56;100553.09;5039950;28;20082;-52
2022/05/24 11:05:50;;;;;;;2.65;1.80;;;;;;;14.75;68.58;100556.63;5043670;28;20106;-53
2022/05/24 11:08:21;;;;;;;2.25;1.90;;;;;;;15.05;67.83;100562.41;5040793;28;20026;-52
2022/05/24 11:10:50;;;;;;;4.30;2.35;;;;;;;15.28;66.98;100559.25;5039735;28;20068;-54
2022/05/24 11:13:39;;;;;;;4.18;2.17;;;;;;;15.64;68.70;100545.44;5041986;28;20080;-52
2022/05/24 11:16:11;;;;;;;3.35;2.20;;;;;;;15.95;67.44;100546.56;5042283;28;20032;-54
2022/05/24 11:18:40;;;;;;;5.30;2.88;;;;;;;15.88;65.29;100564.50;5034781;28;20029;-52
2022/05/24 11:21:19;;;;;;;2.78;2.38;;;;;;;15.62;65.13;100555.53;5039513;28;20159;-53
2022/05/24 11:24:02;;;;;;;2.40;1.80;;;;;;;15.22;63.80;100564.63;5042903;28;20503;-53
2022/05/24 11:26:31;;;;;;;2.22;1.30;;;;;;;14.40;64.80;100576.47;5036566;28;20054;-52
2022/05/24 11:29:10;;;;;;;4.45;1.80;;;;;;;14.19;66.32;100566.78;5037735;28;20025;-51
2022/05/24 11:31:46;;;;;;;3.25;1.80;;;;;;;14.00;67.48;100567.50;5038898;28;20056;-55
2022/05/24 11:34:28;;;;;;;3.13;1.80;;;;;;;13.86;68.76;100567.44;5039533;28;20028;-56
2022/05/24 11:37:22;;;;;;;4.05;1.90;;;;;;;14.15;69.73;100562.81;5041783;28;20053;-56
2022/05/24 11:39:48;;;;;;;3.45;2.15;;;;;;;14.59;70.34;100567.72;5044264;28;20031;-56
2022/05/24 11:42:40;;;;;;;4.90;2.20;;;;;;;14.97;70.76;100573.28;5024744;28;20033;-55
2022/05/24 11:45:44;;;;;;;2.67;2.38;;;;;;;15.34;69.27;100574.50;5039076;28;20033;-55
2022/05/24 11:48:13;;;;;;;3.47;2.28;;;;;;;15.62;67.54;100565.44;5039897;28;20068;-54
2022/05/24 11:50:41;;;;;;;3.22;1.70;;;;;;;15.89;66.52;100582.19;5040761;28;20397;-55
2022/05/24 11:53:26;;;;;;;2.03;1.40;;;;;;;16.04;64.17;100572.06;5035125;28;20040;-55
2022/05/24 11:55:54;;;;;;;2.60;1.70;;;;;;;16.35;63.34;100580.16;5038424;28;20049;-55
2022/05/24 11:58:19;;;;;;;2.42;1.10;;;;;;;16.48;61.54;100581.09;5039836;28;20036;-55
2022/05/24 12:01:05;;;;;;;1.30;1.20;;;;;;;16.63;61.35;100574.41;5045255;28;20032;-55
2022/05/24 12:09:25;;;;;;;2.75;1.27;;;;;;;16.70;59.75;100602.03;5045786;28;20109;-54
2022/05/24 12:12:18;;;;;;;2.85;1.27;;;;;;;16.40;58.92;100600.94;5040562;28;20025;-54
2022/05/24 12:14:43;;;;;;;2.58;1.20;;;;;;;16.20;59.47;100621.69;5043515;28;20487;-55
2022/05/24 12:17:13;;;;;;;2.28;1.10;;;;;;;16.14;60.36;100615.28;5049255;28;20021;-52
2022/05/24 12:19:38;;;;;;;1.60;0.90;;;;;;;15.91;60.81;100610.44;5049223;28;20024;-54
2022/05/24 12:22:17;;;;;;;2.67;1.10;;;;;;;15.63;60.04;100637.50;5049515;28;20081;-53
2022/05/24 12:24:47;;;;;;;2.33;1.13;;;;;;;15.57;60.56;100640.13;5047288;28;20403;-52